Terminal Aerodrome Forecast
Issued by NWS La Crosse, WI

Home | Current Version | Previous Version | Text Only | Print | Product List | Glossary On
Versions: 1 2 3 4 5 6 7 8 9 10 11 12 13 14 15 16 17 18 19 20 21
000
FTUS43 KARX 171720
TAFLSE
TAF
KLSE 171720Z 1718/1818 17011G20KT 4SM -RA BR OVC010
     FM172100 17007KT 5SM -RA BR OVC008
     FM180000 VRB03KT 2SM BR VCSH OVC008
     FM180700 35009KT 3SM BR OVC008
     FM181000 34010KT P6SM OVC010=

USA.gov is the U.S. government's official web portal to all federal, state and local government web resources and services.